Latest Coastal Weather Observations for Weipa

IDQ60701

Issued at 5:32 pm EST Friday 3 December 2021 (issued every 10 minutes, with the page automatically refreshed every 10 minutes)

About coastal observations | Map of coastal stations | Coastal observations for QLD | Marine services | Other Formats
Station Details ID: 027045 Name: WEIPA AERO Lat: -12.68 Lon: 141.92 Height: 17.96 m
Data from the previous 72 hours. | See also: Recent months at Weipa
Date/Time
EST
Wind Sea
Height
m
Swell Vis
km
Cloud Weather Temp
°C
Press
MSL
hPa
Rain since
9am
mm
Dir  Spd
kts
Gust
kts
Height
m
Period
s
Dir
03/05:30pm W 5 8 - - - - 10 Partly cloudy - 30.4 1005.7 2.2
03/05:00pm W 5 8 - - - - 10 Partly cloudy - 30.4 1005.7 2.2
03/04:30pm W 6 9 - - - - 10 Partly cloudy - 30.7 1005.9 2.2
03/04:00pm W 7 14 - - - - 10 Partly cloudy - 30.1 1005.9 2.2
03/03:46pm W 6 9 - - - - 10 Partly cloudy - 30.5 1006.0 2.2
03/03:36pm WSW 6 10 - - - - 10 Partly cloudy - 29.3 1005.5 2.2
03/03:30pm NNE 4 7 - - - - 10 Partly cloudy - 29.6 1005.6 2.2
03/03:29pm NE 4 8 - - - - 10 Partly cloudy - 29.4 1005.6 2.2
03/03:11pm E 6 11 - - - - 6 Partly cloudy - 28.9 1006.4 1.6
03/03:00pm NNE 5 8 - - - - 10 Cloudy Thunderstorm 30.7 1006.4 0.2
03/02:30pm N 10 17 - - - - 10 Partly cloudy - 30.7 1006.4 0.0
03/02:00pm WSW 7 9 - - - - 10 Partly cloudy - 34.5 1006.6 0.0
03/01:30pm ESE 5 8 - - - - 10 Partly cloudy - 34.1 1007.3 0.0
03/01:00pm SE 8 12 - - - - 10 Partly cloudy - 34.1 1008.1 0.0
03/12:30pm ESE 7 11 - - - - 10 Partly cloudy - 34.1 1008.7 0.0
03/12:00pm E 6 11 - - - - 10 Mostly cloudy - 34.0 1009.2 0.0
03/11:30am NE 9 11 - - - - 10 Partly cloudy - 33.6 1009.7 0.0
03/11:00am E 6 13 - - - - 10 Partly cloudy - 33.3 1010.1 0.0
03/10:30am ENE 7 11 - - - - 10 Partly cloudy - 31.7 1010.4 0.0
03/10:00am E 9 13 - - - - 10 Partly cloudy - 31.6 1010.4 0.0
03/09:30am E 8 11 - - - - 10 Partly cloudy - 31.0 1010.5 0.0
03/09:00am E 9 13 - - - - 10 Mostly clear - 30.6 1010.3 3.4
03/08:30am E 7 10 - - - - 10 - - 30.1 1010.4 3.4
03/08:00am E 6 8 - - - - 10 - - 29.3 1010.2 3.4
03/07:30am ESE 5 7 - - - - 10 - - 28.0 1009.8 3.4
03/07:00am SE 4 5 - - - - 10 - - 26.7 1009.7 3.4
03/06:30am CALM 0 0 - - - - 10 - - 25.9 1009.3 3.4
03/06:00am E 1 3 - - - - 10 - - 25.8 1008.9 3.4
03/05:30am E 4 5 - - - - 10 - - 26.1 1008.5 3.4
03/05:00am NE 3 4 - - - - 10 Partly cloudy - 26.1 1008.1 3.4
03/04:30am NE 1 3 - - - - 10 Partly cloudy - 26.1 1007.8 3.4
03/04:00am NE 3 5 - - - - 10 Partly cloudy - 26.2 1007.7 3.4
03/03:30am NE 3 4 - - - - 10 Partly cloudy - 26.3 1007.5 3.4
03/03:00am NE 4 5 - - - - 10 Mostly clear - 26.4 1007.6 3.4
03/02:30am NE 4 5 - - - - 10 Partly cloudy - 26.6 1007.6 3.4
03/02:00am NE 4 5 - - - - 10 Partly cloudy - 26.6 1007.8 3.4
03/01:30am ENE 4 5 - - - - 10 Partly cloudy - 26.9 1008.0 3.4
03/01:00am NE 3 5 - - - - 10 Partly cloudy - 27.1 1008.6 3.4
03/12:30am NW 4 6 - - - - 10 Partly cloudy - 27.5 1009.0 3.4
03/12:00am NE 1 7 - - - - 10 Mostly cloudy - 27.9 1009.2 3.4
 
Date/Time
EST
Wind Sea
Height
m
Swell Vis
km
Cloud Weather Temp
°C
Press
MSL
hPa
Rain since
9am
mm
Dir  Spd
kts
Gust
kts
Height
m
Period
s
Dir
02/11:30pm CALM 0 0 - - - - 10 Partly cloudy - 27.4 1009.5 3.4
02/11:00pm CALM 0 0 - - - - 10 - - 27.6 1009.4 3.4
02/10:30pm N 1 4 - - - - 10 - - 27.6 1009.2 3.4
02/10:00pm N 5 6 - - - - 10 Partly cloudy - 27.6 1009.2 3.4
02/09:30pm NNE 4 6 - - - - 10 Partly cloudy - 28.3 1009.1 3.4
02/09:00pm NNW 1 4 - - - - 10 Partly cloudy - 28.7 1008.8 3.4
02/08:30pm CALM 0 0 - - - - 10 Partly cloudy - 28.6 1008.5 3.4
02/08:00pm WNW 3 4 - - - - 10 Partly cloudy - 28.3 1008.1 3.4
02/07:30pm NW 4 6 - - - - 10 Partly cloudy - 28.3 1007.6 3.4
02/07:00pm NW 6 9 - - - - 10 Partly cloudy - 28.3 1007.0 3.4
02/06:30pm NNW 7 9 - - - - 10 Partly cloudy - 28.7 1006.6 3.4
02/06:00pm N 7 9 - - - - 10 Mostly clear - 29.4 1006.2 3.4
02/05:30pm NW 7 10 - - - - 10 Partly cloudy - 30.4 1005.8 3.4
02/05:00pm NW 8 11 - - - - 10 Partly cloudy - 31.1 1005.9 3.4
02/04:30pm WSW 5 6 - - - - 10 Partly cloudy - 31.8 1005.6 3.4
02/04:00pm WSW 5 7 - - - - 10 Partly cloudy - 31.4 1005.0 3.4
02/03:30pm WNW 5 6 - - - - 10 Partly cloudy - 31.2 1005.5 3.0
02/03:21pm WNW 4 6 - - - - 10 Partly cloudy - 31.4 1005.4 3.0
02/03:01pm ENE 6 13 - - - - 5 Partly cloudy - 30.2 1005.9 2.8
02/03:00pm ENE 6 13 - - - - 8 Mostly cloudy Rain 30.6 1005.8 2.0
02/02:30pm SSW 4 6 - - - - 10 Partly cloudy - 33.3 1005.7 0.0
02/02:00pm S 3 11 - - - - 10 Partly cloudy - 32.7 1006.3 0.0
02/01:30pm ENE 4 8 - - - - 10 Partly cloudy - 33.7 1006.4 0.0
02/01:00pm ENE 6 9 - - - - 10 Partly cloudy - 33.4 1006.9 0.0
02/12:30pm ESE 7 11 - - - - 10 Partly cloudy - 33.9 1007.5 0.0
02/12:00pm ENE 8 14 - - - - 10 Mostly cloudy - 33.0 1007.9 0.0
02/11:30am E 10 14 - - - - 10 Partly cloudy - 32.9 1008.4 0.0
02/11:00am E 9 14 - - - - 10 Partly cloudy - 32.3 1008.9 0.0
02/10:30am ENE 9 14 - - - - 10 Partly cloudy - 31.9 1009.2 0.0
02/10:00am E 9 13 - - - - 10 Partly cloudy - 31.7 1009.2 0.0
02/09:30am ENE 9 13 - - - - 10 Partly cloudy - 30.6 1009.3 0.0
02/09:00am E 6 9 - - - - 10 Mostly clear - 29.2 1009.1 26.0
02/08:30am ESE 6 7 - - - - 10 Partly cloudy - 27.4 1009.2 26.0
02/08:28am ESE 6 8 - - - - 10 Partly cloudy - 27.5 1009.1 26.0
02/08:00am SE 5 7 - - - - 10 Cloudy - 26.4 1008.9 26.0
02/07:30am SSE 5 7 - - - - 10 Cloudy - 25.8 1008.8 26.0
02/07:00am SSE 4 6 - - - - 10 Partly cloudy - 25.5 1008.4 26.0
02/06:30am CALM 0 0 - - - - 10 Cloudy - 25.1 1007.7 26.0
02/06:10am SE 2 4 - - - - 10 Partly cloudy - 25.0 1007.2 26.0
02/06:00am ENE 1 4 - - - - 10 Cloudy Recent precip. 25.0 1007.0 26.0
02/05:55am NE 3 4 - - - - 10 Partly cloudy - 24.9 1006.9 26.0
02/05:30am N 2 4 - - - - 10 Cloudy - 25.0 1006.8 26.0
02/05:00am NE 3 4 - - - - 10 Cloudy - 25.0 1006.5 25.8
02/04:39am CALM 0 3 - - - - 10 Partly cloudy - 25.0 1006.6 25.8
02/04:30am ENE 3 4 - - - - 10 Partly cloudy - 25.0 1006.4 25.8
02/04:00am ENE 3 4 - - - - 10 - - 25.0 1006.2 25.8
02/03:30am CALM 0 0 - - - - 10 - - 25.0 1006.3 25.8
02/03:19am NNE 1 3 - - - - 10 Partly cloudy - 25.0 1006.3 25.8
02/03:00am CALM 0 0 - - - - 10 Cloudy - 25.0 1006.5 25.8
02/02:50am WSW 1 4 - - - - 10 Partly cloudy - 24.9 1006.6 25.8
02/02:30am NNW 3 4 - - - - 10 Partly cloudy - 25.0 1006.6 25.8
02/02:08am SSE 3 4 - - - - 10 Partly cloudy - 24.8 1006.3 25.8
02/02:00am S 3 5 - - - - 10 Partly cloudy - 24.9 1006.5 25.8
02/01:30am S 5 7 - - - - 10 Cloudy - 25.1 1007.3 25.8
02/01:00am SSE 5 7 - - - - 10 Cloudy - 25.4 1007.2 25.8
02/12:34am SE 6 8 - - - - 10 Cloudy - 25.4 1007.0 25.8
02/12:30am SE 7 10 - - - - 10 Cloudy - 25.4 1007.0 25.8
02/12:02am ESE 6 8 - - - - 5 Partly cloudy - 25.3 1007.2 25.8
02/12:00am ESE 6 8 - - - - 10 Cloudy Rain 25.2 1007.2 25.8
 
Date/Time
EST
Wind Sea
Height
m
Swell Vis
km
Cloud Weather Temp
°C
Press
MSL
hPa
Rain since
9am
mm
Dir  Spd
kts
Gust
kts
Height
m
Period
s
Dir
01/11:59pm ESE 6 8 - - - - 10 Partly cloudy - 25.3 1007.2 25.8
01/11:30pm SE 5 7 - - - - 10 Partly cloudy - 25.1 1008.2 25.8
01/11:00pm S 3 5 - - - - 10 - - 25.1 1009.0 25.8
01/10:30pm W 2 4 - - - - 10 Partly cloudy - 25.3 1009.4 25.8
01/10:00pm WSW 4 6 - - - - 10 Partly cloudy - 25.3 1009.7 25.8
01/09:53pm SW 4 7 - - - - 10 Partly cloudy - 25.3 1009.8 25.8
01/09:36pm SW 6 9 - - - - 10 Partly cloudy - 25.5 1009.8 25.6
01/09:30pm SW 6 9 - - - - 7 Partly cloudy - 25.9 1009.9 25.2
01/09:24pm SSW 5 9 - - - - 7 Partly cloudy - 25.8 1009.9 25.0
01/09:14pm SW 3 6 - - - - 7 Partly cloudy - 25.6 1009.8 24.0
01/09:00pm SSW 4 5 - - - - 9 Cloudy Rain 25.5 1009.4 23.0
01/08:51pm SW 3 5 - - - - 8 Cloudy - 25.4 1009.0 22.4
01/08:34pm W 1 3 - - - - 6 Partly cloudy - 25.4 1008.4 21.2
01/08:30pm W 2 4 - - - - 7 Partly cloudy - 25.5 1008.2 20.8
01/08:04pm N 3 5 - - - - 7 Partly cloudy - 25.6 1008.5 19.4
01/08:00pm NNE 3 4 - - - - 7 Partly cloudy - 25.3 1008.5 19.2
01/07:57pm NNE 3 5 - - - - 7 Partly cloudy - 25.4 1008.5 19.0
01/07:47pm ENE 5 6 - - - - 6 Partly cloudy - 25.3 1008.5 18.2
01/07:45pm ENE 5 6 - - - - 6 Partly cloudy - 25.5 1008.5 18.0
01/07:30pm NNW 6 8 - - - - 10 Partly cloudy - 25.7 1008.3 16.4
01/07:08pm NW 5 6 - - - - 10 Partly cloudy - 26.0 1007.8 15.4
01/07:03pm WNW 5 6 - - - - 10 Partly cloudy - 25.8 1007.7 15.2
01/07:00pm WNW 5 7 - - - - 10 Partly cloudy - 25.8 1007.6 15.2
01/06:57pm WNW 5 7 - - - - 10 Partly cloudy - 25.8 1007.5 15.2
01/06:30pm N 4 6 - - - - 4 Partly cloudy - 25.8 1007.0 13.0
01/06:16pm NW 4 5 - - - - 5 Partly cloudy - 26.1 1006.7 10.4
01/06:13pm WNW 4 5 - - - - 6 Partly cloudy - 25.9 1006.7 10.2
01/06:02pm WNW 4 5 - - - - 10 Partly cloudy - 25.9 1006.2 9.6
01/06:00pm WNW 4 6 - - - - 10 Mostly cloudy Thunderstorm 26.0 1006.1 9.6
01/05:58pm WNW 4 6 - - - - 10 Partly cloudy - 25.9 1006.0 9.6
01/05:40pm WSW 3 5 - - - - 6 Partly cloudy - 25.9 1005.4 9.0
01/05:35pm SW 3 5 - - - - 10 Partly cloudy - 26.0 1005.6 8.4
01/05:30pm WSW 4 5 - - - - 10 Partly cloudy - 26.2 1005.6 8.2
01/05:23pm NNW 3 5 - - - - 10 Partly cloudy - 26.0 1005.6 8.2
01/05:21pm N 3 5 - - - - 10 Partly cloudy - 26.0 1005.6 8.2
01/05:00pm W 5 6 - - - - 6 Partly cloudy - 26.0 1005.2 7.2
01/04:30pm WSW 7 10 - - - - 10 Partly cloudy - 26.5 1004.5 4.6
01/04:19pm WSW 5 8 - - - - 10 Partly cloudy - 27.2 1004.1 4.2
01/04:00pm E 8 17 - - - - 4 Partly cloudy - 28.4 1004.1 3.0
01/03:56pm E 10 17 - - - - 6 Partly cloudy - 29.2 1003.9 1.8
01/03:44pm WSW 6 11 - - - - 10 Partly cloudy - 34.2 1003.5 0.0
01/03:30pm WNW 6 7 - - - - 10 Partly cloudy - 34.9 1003.2 0.0
01/03:00pm WSW 5 7 - - - - 10 Partly cloudy - 32.0 1003.7 0.0
01/02:30pm N 9 14 - - - - 10 Partly cloudy - 31.8 1004.0 0.0
01/02:15pm ESE 10 21 - - - - 10 Partly cloudy - 33.2 1004.1 0.0
01/02:00pm ENE 5 11 - - - - 10 Partly cloudy - 35.8 1004.3 0.0
01/01:30pm E 7 12 - - - - 10 Partly cloudy - 35.1 1005.0 0.0
01/01:00pm E 8 13 - - - - 10 Partly cloudy - 34.6 1005.9 0.0
01/12:30pm ENE 7 11 - - - - 10 Partly cloudy - 33.8 1006.3 0.0
01/12:00pm ENE 8 11 - - - - 10 Partly cloudy - 34.1 1006.8 0.0
01/11:30am ESE 9 13 - - - - 10 - - 33.2 1007.4 0.0
01/11:00am ESE 8 13 - - - - 10 Partly cloudy - 32.9 1007.8 0.0
01/10:30am ESE 9 13 - - - - 10 - - 31.7 1008.0 0.0
01/10:00am ESE 8 11 - - - - 10 - - 31.1 1008.4 0.0
01/09:30am ESE 10 13 - - - - 10 - - 30.3 1008.7 0.0
01/09:00am ESE 8 10 - - - - 10 - - 29.4 1008.7 53.6
01/08:30am ESE 6 8 - - - - 10 - - 28.6 1008.7 53.6
01/08:00am ESE 5 7 - - - - 10 - - 27.9 1008.7 53.6
01/07:30am ESE 4 6 - - - - 10 - - 26.8 1008.6 53.6
01/07:00am SE 3 4 - - - - 10 - - 25.6 1008.3 53.6
01/06:30am SSE 3 4 - - - - 10 - - 25.3 1008.0 53.6
01/06:00am SE 3 5 - - - - 10 - - 25.0 1007.7 53.6
01/05:30am SE 3 4 - - - - 10 - - 25.0 1007.1 53.6
01/05:00am SSE 5 6 - - - - 10 - - 24.9 1006.6 53.6
01/04:30am SSE 3 5 - - - - 10 - - 25.0 1006.5 53.6
01/04:00am SSE 4 6 - - - - 10 - - 25.1 1006.5 53.6
01/03:30am S 3 6 - - - - 10 - - 25.1 1006.5 53.6
01/03:00am S 3 4 - - - - 10 - - 25.3 1006.6 53.6
01/02:30am SE 4 5 - - - - 10 Partly cloudy - 25.4 1006.9 53.6
01/02:00am SE 3 4 - - - - 10 Partly cloudy - 25.5 1007.0 53.6
01/01:30am S 4 5 - - - - 10 Partly cloudy - 25.4 1007.0 53.4
01/01:00am CALM 0 1 - - - - 10 - - 25.8 1007.4 53.4
01/12:51am CALM 0 1 - - - - 10 Partly cloudy - 25.8 1007.5 53.4
01/12:30am E 2 4 - - - - 10 Partly cloudy - 25.8 1007.7 53.4
01/12:10am NE 2 4 - - - - 10 Partly cloudy - 25.9 1008.2 53.4
01/12:00am NE 4 6 - - - - 10 Partly cloudy Rain 25.8 1008.3 53.4
 
Date/Time
EST
Wind Sea
Height
m
Swell Vis
km
Cloud Weather Temp
°C
Press
MSL
hPa
Rain since
9am
mm
Dir  Spd
kts
Gust
kts
Height
m
Period
s
Dir
30/11:30pm E 6 8 - - - - 10 Partly cloudy - 25.9 1008.4 53.4
30/11:00pm ENE 5 6 - - - - 10 Partly cloudy - 26.1 1008.8 53.4
30/10:30pm ESE 4 6 - - - - 10 Partly cloudy - 26.1 1008.7 53.4
30/10:00pm CALM 0 1 - - - - 10 Partly cloudy - 25.9 1008.0 53.4
30/09:30pm S 1 4 - - - - 10 Partly cloudy - 25.9 1007.7 53.4
30/09:00pm S 2 3 - - - - 10 Cloudy - 25.8 1007.6 53.4
30/08:30pm SSE 3 4 - - - - 10 Partly cloudy - 25.5 1007.3 53.4
30/08:00pm SSW 2 5 - - - - 10 Partly cloudy - 25.6 1007.2 53.4
30/07:30pm CALM 0 0 - - - - 10 Partly cloudy - 25.2 1007.1 53.4
30/07:00pm SSW 1 4 - - - - 10 Partly cloudy - 25.2 1006.9 53.4
30/06:34pm NW 5 7 - - - - 10 Partly cloudy - 25.2 1006.4 53.0
30/06:30pm NNW 4 6 - - - - 10 Partly cloudy - 25.3 1006.3 53.0
30/06:18pm NNW 4 7 - - - - 3 Partly cloudy - 25.4 1006.1 52.8
30/06:10pm NNE 5 7 - - - - 6 Partly cloudy - 25.3 1006.0 50.8
30/06:00pm NW 6 9 - - - - 10 Cloudy Thunderstorm 25.4 1006.1 49.4
30/05:59pm WNW 5 9 - - - - 10 Partly cloudy - 25.4 1006.1 49.4
30/05:54pm W 5 7 - - - - 10 Partly cloudy - 25.2 1006.2 49.4
30/05:41pm W 5 9 - - - - 4 Partly cloudy - 25.3 1006.1 49.0

Other formats

Comma delimited format used in spreadsheet applications
http://www.bom.gov.au/fwo/IDQ60701/IDQ60701.94170.axf

JavaScript Object Notation format (JSON) in row-major order
http://www.bom.gov.au/fwo/IDQ60701/IDQ60701.94170.json

Data quality

Most of these data are generated automatically and are frequently updated. Quality checks on data are not normally performed. It is possible for incorrect values to appear. Refer to information at About Latest Weather Observations and please check the disclaimer before using these data.